• Join FlightAware (Why Join?)
  • Login
  • US Flag GB Flag 
08:42 EDT


 

Airport Tracker/Info


-or-


 

Live Flight TrackerFlight Track Log ✈ VOZ960 ✈ 10-Sep-2013 ✈ YBBN / BNE - YSSY / SYD

Flight Track Log - Related Links

Times and Time Zones

All times are in EDT time to prevent confusion due to time zone crossing. See the VOZ960 flight status page for this flight to view local times or setup timezone preferences in your user account.

Time Position Orientation Groundspeed Altitude Reporting Facility
EDT Latitude Longitude Course Direction KTS MPH feet Rate Location/Type
01:51 -27.3850 153.1280 24° Northeast 135 155  Level FlightAware
01:52 -27.3710 153.1370 30° Northeast 140 161 900 1,680 Climbing FlightAware
01:52 -27.3590 153.1450 31° Northeast 164 189 1,300 1,020 Climbing FlightAware
01:52 -27.3460 153.1580 42° Northeast 201 231 1,600 1,500 Climbing FlightAware
01:53 -27.3320 153.1730 44° Northeast 222 255 2,300 2,220 Climbing FlightAware
01:53 -27.3210 153.1870 49° Northeast 233 268 2,900 2,640 Climbing FlightAware
01:53 -27.3170 153.1980 68° East 240 276 3,400 2,700 Climbing FlightAware
01:53 -27.3230 153.2280 103° East 251 289 4,500 2,580 Climbing FlightAware
01:53 -27.3260 153.2320 130° Southeast 250 288 4,700 2,760 Climbing FlightAware
01:54 -27.3370 153.2410 144° Southeast 245 282 5,200 3,180 Climbing FlightAware
01:54 -27.3430 153.2430 164° South 242 278 5,500 2,760 Climbing FlightAware
01:54 -27.3530 153.2440 175° South 242 278 5,900 1,380 Climbing FlightAware
01:54 -27.3760 153.2360 197° South 266 306 6,200 1,020 Climbing FlightAware
01:55 -27.4010 153.2250 201° Southwest 299 344 6,600 1,500 Climbing FlightAware
01:55 -27.4210 153.2170 200° South 312 359 7,100 2,400 Climbing FlightAware
01:55 -27.4490 153.2050 201° Southwest 321 369 8,000 2,520 Climbing FlightAware
01:55 -27.4750 153.1940 201° Southwest 332 382 8,800 2,520 Climbing FlightAware
01:56 -27.5060 153.1800 202° Southwest 343 395 9,700 2,940 Climbing FlightAware
01:56 -27.5590 153.1570 201° Southwest 352 405 11,500 3,240 Climbing FlightAware
01:57 -27.6130 153.1340 201° Southwest 354 407 13,500 3,300 Climbing FlightAware
01:58 -27.6680 153.1100 201° Southwest 366 421 15,400 3,000 Climbing FlightAware
01:58 -27.7169 153.0884 201° Southwest 374 430 16,800 2,700 Climbing Aus ATC (RADAR)
01:58 -27.7220 153.0860 201° Southwest 384 442 17,000 2,880 Climbing FlightAware
01:59 -27.7840 153.0590 201° Southwest 394 453 18,700 3,000 Climbing FlightAware
01:59 -27.8359 153.0360 201° Southwest 397 457 20,300 3,120 Climbing Aus ATC (RADAR)
01:59 -27.8480 153.0310 201° Southwest 400 460 20,800 2,700 Climbing FlightAware
02:00 -27.9040 153.0070 201° Southwest 407 468 22,100 2,580 Climbing FlightAware
02:00 -27.9660 152.9790 202° Southwest 415 478 23,600 2,460 Climbing FlightAware
02:01 -28.0300 152.9510 201° Southwest 421 484 25,000 2,280 Climbing FlightAware
02:02 -28.0940 152.9230 201° Southwest 427 491 26,300 2,100 Climbing FlightAware
02:02 -28.1600 152.8940 201° Southwest 434 499 27,500 1,920 Climbing FlightAware
02:03 -28.2310 152.8620 202° Southwest 441 507 28,700 1,680 Climbing FlightAware
02:03 -28.2920 152.8350 201° Southwest 448 516 29,500 1,560 Climbing FlightAware
02:04 -28.3517 152.8081 201° Southwest 450 518 30,300 1,680 Climbing Aus ATC (RADAR)
02:04 -28.3610 152.8040 201° Southwest 454 522 30,500 2,100 Climbing FlightAware
02:05 -28.4300 152.7730 202° Southwest 451 519 31,700 1,980 Climbing FlightAware
02:05 -28.5070 152.7390 201° Southwest 448 516 33,000 2,040 Climbing FlightAware
02:06 -28.5650 152.7130 201° Southwest 442 509 34,100 1,980 Climbing FlightAware
02:06 -28.6310 152.6830 202° Southwest 435 501 35,200 1,920 Climbing FlightAware
02:07 -28.7050 152.6500 201° Southwest 425 489 36,500 1,920 Climbing FlightAware
02:07 -28.7570 152.6270 201° Southwest 416 479 37,500 1,380 Climbing FlightAware
02:08 -28.8210 152.5980 202° Southwest 413 475 38,000 420 Climbing FlightAware
02:09 -28.8820 152.5700 202° Southwest 415 478 38,000  Level FlightAware
02:09 -28.9420 152.5430 201° Southwest 415 478 38,000  Level FlightAware
02:10 -29.0060 152.5140 202° Southwest 415 478 38,000  Level FlightAware
02:10 -29.0670 152.4870 201° Southwest 415 478 38,000  Level FlightAware
02:11 -29.1510 152.4490 202° Southwest 415 478 38,000  Level FlightAware
02:12 -29.2140 152.4200 202° Southwest 416 479 38,000  Level FlightAware
02:12 -29.2650 152.3970 201° Southwest 416 479 38,000  Level FlightAware
02:13 -29.3360 152.3650 201° Southwest 415 478 38,000  Level FlightAware
02:13 -29.4030 152.3340 202° Southwest 414 476 38,000  Level FlightAware
02:14 -29.4660 152.3060 201° Southwest 414 476 38,000  Level FlightAware
02:15 -29.5360 152.2740 202° Southwest 415 478 38,000  Level FlightAware
02:15 -29.5950 152.2470 202° Southwest 414 476 38,000  Level FlightAware
02:16 -29.6580 152.2180 202° Southwest 414 476 38,000  Level FlightAware
02:16 -29.7240 152.1880 202° Southwest 415 478 38,000  Level FlightAware
02:17 -29.7810 152.1620 202° Southwest 413 475 38,000  Level FlightAware
02:18 -29.8440 152.1330 202° Southwest 413 475 38,000  Level FlightAware
02:18 -29.9040 152.1050 202° Southwest 412 474 38,000 -180 Level FlightAware
02:19 -29.9698 152.0746 202° Southwest 412 474 37,800  Descending Aus ATC (RADAR)
02:19 -29.9730 152.0730 202° Southwest 413 475 38,000 300 Climbing FlightAware
02:19 -30.0340 152.0450 202° Southwest 413 475 38,000  Level FlightAware
02:20 -30.0940 152.0190 201° Southwest 413 475 38,000  Level FlightAware
02:21 -30.1480 151.9940 202° Southwest 413 475 38,000 -180 Level FlightAware
02:21 -30.2351 151.9517 202° Southwest 410 472 37,800  Descending Aus ATC (RADAR)
02:22 -30.2750 151.9340 202° Southwest 403 464 38,000 180 Climbing FlightAware
02:22 -30.3290 151.9090 202° Southwest 403 464 38,000 -300 Level FlightAware
02:22 -30.3495 151.8982 202° Southwest 410 472 37,800  Descending Aus ATC (RADAR)
02:23 -30.4100 151.8710 202° Southwest 403 464 38,000 120 Climbing FlightAware
02:24 -30.4720 151.8430 201° Southwest 412 474 38,000  Level FlightAware
02:24 -30.5360 151.8130 202° Southwest 413 475 38,000  Level FlightAware
02:25 -30.6040 151.7810 202° Southwest 415 478 38,000  Level FlightAware
02:25 -30.6610 151.7540 202° Southwest 415 478 38,000  Level FlightAware
02:26 -30.7230 151.7250 202° Southwest 415 478 38,000  Level FlightAware
02:27 -30.7890 151.6940 202° Southwest 415 478 38,000  Level FlightAware
02:27 -30.8490 151.6660 202° Southwest 615 708 38,000  Level FlightAware
02:28 -30.9110 151.6370 202° Southwest 415 478 38,000  Level FlightAware
02:28 -30.9620 151.6130 202° Southwest 415 478 38,000  Level FlightAware
02:29 -31.0390 151.5770 202° Southwest 415 478 38,000 -120 Level FlightAware
02:29 -31.0951 151.5487 202° Southwest 414 476 37,900  Descending Aus ATC (RADAR)
02:29 -31.1010 151.5470 202° Southwest 415 478 38,000 120 Climbing FlightAware
02:30 -31.1770 151.5110 202° Southwest 415 478 38,000  Level FlightAware
02:31 -31.2350 151.4840 202° Southwest 416 479 38,000 -180 Level FlightAware
02:31 -31.3096 151.4499 202° Southwest 413 475 37,800  Descending Aus ATC (RADAR)
02:31 -31.3110 151.4480 202° Southwest 415 478 38,000 240 Climbing FlightAware
02:32 -31.3850 151.4130 202° Southwest 415 478 38,000  Level FlightAware
02:33 -31.4540 151.3820 201° Southwest 418 481 38,000  Level FlightAware
02:33 -31.5100 151.3570 201° Southwest 417 480 38,000  Level FlightAware
02:34 -31.5730 151.3290 201° Southwest 417 480 38,000 -120 Level FlightAware
02:34 -31.6420 151.2989 201° Southwest 416 479 37,900  Descending Aus ATC (RADAR)
02:34 -31.6380 151.3000 201° Southwest 416 479 38,000 120 Climbing FlightAware
02:35 -31.6990 151.2730 201° Southwest 418 481 38,000  Level FlightAware
02:36 -31.7640 151.2430 201° Southwest 422 486 38,000  Level FlightAware
02:36 -31.8280 151.2150 200° South 426 490 38,000 -120 Level FlightAware
02:37 -31.8932 151.1901 200° South 426 490 37,900  Descending Aus ATC (RADAR)
02:37 -31.8970 151.1910 200° South 437 503 38,000  Climbing FlightAware
02:37 -31.9640 151.1818 200° South 431 496 37,900  Descending Aus ATC (RADAR)
02:37 -31.9680 151.1820 200° South 437 503 38,000 120 Climbing FlightAware
02:38 -32.0350 151.1750 185° South 435 501 38,000  Level FlightAware
02:39 -32.1060 151.1680 185° South 434 499 38,000  Level FlightAware
02:39 -32.1750 151.1600 186° South 430 495 38,000  Level FlightAware
02:40 -32.2450 151.1530 185° South 428 493 38,000 -540 Level FlightAware
02:40 -32.3160 151.1450 185° South 419 482 37,400 -1,740 Descending FlightAware
02:41 -32.3880 151.1370 185° South 418 481 35,900 -2,640 Descending FlightAware
02:42 -32.4590 151.1290 185° South 424 488 34,200 -2,880 Descending FlightAware
02:42 -32.5160 151.1230 185° South 430 495 32,800 -3,000 Descending FlightAware
02:43 -32.5890 151.1150 185° South 439 505 30,900 -3,780 Descending FlightAware
02:43 -32.6700 151.1070 185° South 457 526 28,100 -4,080 Descending FlightAware
02:44 -32.7450 151.0980 186° South 459 528 26,100 -3,000 Descending FlightAware
02:44 -32.8150 151.0910 185° South 445 512 24,700 -2,520 Descending FlightAware
02:45 -32.8890 151.0820 186° South 433 498 23,200 -2,340 Descending FlightAware
02:46 -32.9540 151.0750 185° South 423 487 22,000 -2,160 Descending FlightAware
02:46 -33.0230 151.0680 185° South 408 470 20,700 -2,340 Descending FlightAware
02:47 -33.0880 151.0600 186° South 399 459 19,300 -2,400 Descending FlightAware
02:47 -33.1510 151.0530 185° South 393 452 17,900 -2,340 Descending FlightAware
02:48 -33.2100 151.0470 185° South 386 444 16,600 -2,400 Descending FlightAware
02:48 -33.2780 151.0520 176° South 389 448 15,100 -2,520 Descending FlightAware
02:49 -33.3310 151.0620 171° South 383 441 13,900 -2,400 Descending FlightAware
02:50 -33.4010 151.0750 171° South 375 432 12,300 -2,400 Descending FlightAware
02:50 -33.4610 151.0870 171° South 370 426 10,900 -2,100 Descending FlightAware
02:51 -33.5180 151.0980 171° South 349 402 9,900 -1,500 Descending FlightAware
02:51 -33.5280 151.1000 171° South 348 400 9,800 -900 Descending FlightAware
02:51 -33.5730 151.1080 172° South 332 382 9,400 -840 Descending FlightAware
02:52 -33.6020 151.1160 167° South 327 376 9,200 -600 Descending FlightAware
02:52 -33.6160 151.1270 147° Southeast 331 381 9,100 -840 Descending FlightAware
02:52 -33.6210 151.1320 140° Southeast 332 382 9,000 -900 Descending FlightAware
02:52 -33.6370 151.1480 140° Southeast 329 379 8,800 -900 Descending FlightAware
02:53 -33.6610 151.1730 139° Southeast 330 380 8,500 -960 Descending FlightAware
02:53 -33.6850 151.1980 139° Southeast 325 374 8,200 -960 Descending FlightAware
02:53 -33.7130 151.2270 139° Southeast 320 368 7,800 -960 Descending FlightAware
02:54 -33.7350 151.2500 139° Southeast 314 361 7,500 -960 Descending FlightAware
02:54 -33.7570 151.2730 139° Southeast 309 356 7,200 -1,080 Descending FlightAware
02:54 -33.7780 151.2950 139° Southeast 311 358 6,800 -1,320 Descending FlightAware
02:55 -33.7970 151.3210 131° Southeast 313 360 6,300 -1,440 Descending FlightAware
02:55 -33.8020 151.3360 112° Southeast 310 357 6,100 -1,200 Descending FlightAware
02:55 -33.8030 151.3450 98° East 307 353 6,000 -1,800 Descending FlightAware
02:55 -33.8040 151.3530 99° East 305 351 5,800 -1,440 Descending FlightAware
02:55 -33.8020 151.3820 85° East 303 349 5,400 -1,500 Descending FlightAware
02:56 -33.8120 151.4280 105° East 299 344 4,700 -1,500 Descending FlightAware
02:56 -33.8200 151.4370 137° Southeast 294 338 4,500 -1,200 Descending FlightAware
02:56 -33.8340 151.4460 152° Southeast 281 323 4,300 -1,320 Descending FlightAware
02:56 -33.8410 151.4480 167° South 281 323 4,200 -480 Descending FlightAware
02:57 -33.8740 151.4350 198° South 238 274 4,000 -420 Descending FlightAware
02:57 -33.8810 151.4230 235° Southwest 219 252 3,900 -720 Descending FlightAware
02:57 -33.8830 151.4160 251° West 211 243 3,800 -600 Descending FlightAware
02:57 -33.8870 151.4020 251° West 205 236 3,700 -720 Descending FlightAware
02:58 -33.8930 151.3780 253° West 184 212 3,400 -840 Descending FlightAware
02:58 -33.8980 151.3590 252° West 173 199 3,100 -900 Descending FlightAware
02:58 -33.9010 151.3430 257° West 162 186 2,800 -960 Descending FlightAware
02:58 -33.9040 151.3310 253° West 157 181 2,600 -780 Descending FlightAware
02:59 -33.9080 151.3160 252° West 151 174 2,400 -720 Descending FlightAware
02:59 -33.9140 151.2890 255° West 136 157 2,000 -780 Descending FlightAware
03:00 -33.9180 151.2750 251° West 134 154 1,700 -660 Descending FlightAware
03:00 -33.9220 151.2560 256° West 127 146 1,500 -720 Descending FlightAware
03:00 -33.9260 151.2410 252° West 132 152 1,200 -660 Descending FlightAware
03:01 -33.9280 151.2330 253° West 133 153 1,100 -360 Descending FlightAware
03:01 -33.9340 151.2060 255° West 126 145 900 -600 Descending FlightAware
03:02 -33.9360 151.1950 258° West 137 158 500 -1,020 Descending FlightAware
03:02 -33.9420 151.1730 252° West 140 161 -1,140 Descending FlightAware
03:04 -33.9400 151.1720 59° Northeast 140 161  Level FlightAware
03:05 -33.9390 151.1770 90° East 140 161  Level FlightAware